Главная страница
METAR-TAF:

METAR-TAF

Аэропорты :

Рабат, Марокко

широта: 34-03N, долгота: 006-46W, высота над уровнем моря: 84 м

Текущие метеонаблюдения

Эта сводка был подготовлена 34 минут назад, в 22:30 UTC
Штиль
Температура 20°C
Влажность 88%
Давление 1017 hPa
Видимость: 2400 м
небольшая облачность на высоте 1000 фута
дымка

METAR: GMME 212230Z 00000KT 2400 BR FEW010 20/18 Q1017 TEMPO 1600 BR

Время: 00:04 (23:04 UTC)

Прогноз

Эта сводка был подготовлена 6 часа и 4 минут назад, в 17:00 UTC
Прогноз действительный с 21-го 18 UTC до 22-го 24 UTC
Ветер 10 Узел от северо-западный
Видимость: 8000 м
временами
С 22-го 00 UTC до 22-го 10 UTC
Ветер 2 Узел переменных направлений
Видимость: 3000 м
Отдельные облака на высоте 800 фута
Рассеянная облачность на высоте 1600 фута
дымка

TAF: GMME 211700Z 2118/2224 32010KT 8000 NSC TEMPO 2200/2210 VRB02KT 3000 BR SCT008 BKN016

Метеонаблюдения и прогнозы для более 4000 аэропортов (сводки METAR и TAF).

Имеющиеся станции представлены на карте желтыми и красными точками.

Чтобы увидеть название станции, наведите на нее мышь.

Затем щелкните, чтобы увидеть метеонаблюдения и метеопрогнозы.

Управление картой: чтобы увеличить масштаб, щелкните зеленые кнопки с черным крестиком; чтобы уменьшить масштаб, щелкните зеленую кнопку с тире; для просмотра соседних карт щелкайте зеленые стрелки.


METAR-TAF: